Norwood, Texas
Current Conditions -  °F | °C
As of 6:15 PM on Wednesday 28 Jan 2015 (Local Time) from KOCH Reporting Station
Clear Clear  
Wind Chill: 68°   Ceiling: Unl
Heat Index: 68°   Visibility: 10mi
Dew Point: 45°   Wind: 8mph
Humidity: 43%   Direction: 170°S
Pressure: 30.11"   Gusts: NA
Location:  31.516°N, 94.1687°W
Report Text: KOCH 290015Z AUTO 17007KT 10SM CLR 20/07 A3011 RMK AO1
Loading
Personal Weather Stations






























Interactive Weather Map New forecast layout! Learn more

10-Day Weather Forecast

Advertisements
Track Severe Weather on mobile